Acoperit cu ninsoare ușoară
Acoperit cu ninsoare ușoară
Acoperit cu ninsoare ușoară
Acoperit cu ninsoare ușoară
Acoperit cu ninsoare ușoară
Acoperit cu ninsoare ușoară
Acoperit cu ninsoare ușoară
(°C)
(°C)
-9°
-10°
-10°
-10°
-10°
-10°
-10°
NE
NE
NE
NE
NE
NE
NE
(km/h)
37-52
39-51
38-51
39-49
39-48
39-47
39-46
(mm)
1
1
1
1.2
1.3
1.5
1.7
(%)
99
92
86
99
92
99
99

Elevația soarelui

/ 22.4°
sun-icon
UV 0
07:38
17:18
Primul pătrar (76°)
10:45
24:00

METAR pentru Otopeni (LROP)

Ora Condiții Temperatură/
Punctul de rouă
Vânt Vizibilitate Vremea Nori Presiune Schimbă Brut
IFR 0°C / 0°C 50º 20kt >10km Light Rain Light Snow 1.00mm precipitation Vertical Visibility of 0ft. 1011 Becoming: Broken Clouds 1000ft. Overcast 1500ft. LROP 270830Z 05020KT 9999 -RASN OVC007 00/00 Q1011 BECMG BKN010 OVC015
IFR 0°C / 0°C 50º 22kt 7000m Light Rain Light Snow 1.00mm precipitation Vertical Visibility of 0ft. 1012 Becoming: Broken Clouds 1000ft. Overcast 1500ft. LROP 270800Z 05022KT 7000 -RASN OVC007 M00/M00 Q1012 BECMG BKN010 OVC015
IFR 0°C / 0°C 50º 23kt 5000m Light Snow Mist 1.00mm precipitation Vertical Visibility of 0ft. 1012 Becoming: Broken Clouds 1000ft. Overcast 1500ft. LROP 270730Z 05023KT 5000 -SN BR OVC007 M00/M00 Q1012 BECMG BKN010 OVC015
IFR 0°C / 0°C 50º 14kt Gust 24kt 3500m Light Snow Mist 1.00mm precipitation Vertical Visibility of 0ft. 1012 No Significant change LROP 270700Z 05014G24KT 3500 -SN BR OVC006 M00/M00 Q1012 NOSIG
IFR 0°C / 0°C 50º variable 020º to 080º 15kt 2200m Light Snow Mist 1.00mm precipitation Vertical Visibility of 0ft. 1012 No Significant change LROP 270630Z 05015KT 020V080 2200 -SN BR OVC006 M00/M00 Q1012 NOSIG
IFR 0°C / 0°C 50º variable 010º to 110º 12kt 2200m Light Snow 1.00mm precipitation Vertical Visibility of 0ft. 1012 No Significant change LROP 270600Z 05012KT 010V110 2200 -SN OVC006 M00/M00 Q1012 NOSIG
LIFR 0°C / 0°C 50º 23kt 1500m Light Snow Mist 1.00mm precipitation Vertical Visibility of 0ft. 1012 No Significant change LROP 270530Z 05023KT 1500 -SN BR OVC005 M00/M00 Q1012 NOSIG
LIFR 0°C / 0°C 50º 21kt 1500m Light Snow Mist 1.00mm precipitation Vertical Visibility of 0ft. 1012 No Significant change LROP 270500Z 05021KT 1500 -SN BR OVC005 00/00 Q1012 NOSIG
IFR 0°C / 0°C 50º 21kt 1800m Light Snow Mist 1.00mm precipitation Vertical Visibility of 0ft. 1012 No Significant change LROP 270430Z 05021KT 1800 -SN BR OVC005 00/00 Q1012 NOSIG
LIFR 0°C / 0°C 50º 21kt 1700m Light Snow Mist 1.00mm precipitation Vertical Visibility of 0ft. 1012 No Significant change LROP 270400Z 05021KT 1700 -SN BR OVC004 00/00 Q1012 NOSIG
LIFR 0°C / 0°C 50º 21kt 1500m Light Snow Mist 1.00mm precipitation Vertical Visibility of 0ft. 1012 No Significant change LROP 270330Z 05021KT 1500 -SN BR OVC004 00/00 Q1012 NOSIG
LIFR 0°C / 0°C 50º 20kt 1500m Light Snow Mist 1.00mm precipitation Vertical Visibility of 0ft. 1012 Temporary: Visibility 0800. Snow . LROP 270300Z 05020KT 1500 -SN BR OVC004 00/00 Q1012 TEMPO 0800 SN
LIFR 0°C / 0°C 50º 19kt 1700m Light Snow Mist 1.00mm precipitation Vertical Visibility of 0ft.
Overcast 3500ft
1012 No Significant change LROP 270230Z 05019KT 1700 -SN BR BKN004 OVC035 00/00 Q1012 NOSIG
LIFR 0°C / 0°C 50º 19kt 1500m Light Snow Mist 1.00mm precipitation Vertical Visibility of 0ft. 1012 Temporary: Visibility 0800. Snow . blowing Snow . Broken Clouds 200ft. Overcast 500ft. LROP 270200Z 05019KT 1500 -SN BR OVC004 00/00 Q1012 TEMPO 0800 SN BLSN BKN002 OVC005
LIFR 0°C / 0°C 50º 21kt 1100m. Runway 08R: Visual range is 1100m. Runway 08L: Visual range is 1700m. blowing Snow Snow 3.00mm precipitation Vertical Visibility of 0ft. 1013 No Significant change LROP 270130Z 05021KT 1100 R08R/1100 R08L/1700 SN BLSN OVC004 00/00 Q1013 NOSIG
LIFR 0°C / 0°C 50º 20kt 1500m Snow Mist 3.00mm precipitation Vertical Visibility of 0ft. 1013 No Significant change LROP 270100Z 05020KT 1500 SN BR OVC005 00/00 Q1013 NOSIG
LIFR 1°C / 0°C 50º 21kt 1500m Snow Mist 3.00mm precipitation Vertical Visibility of 0ft. 1013 No Significant change LROP 270030Z 05021KT 1500 SN BR OVC004 01/00 Q1013 NOSIG
LIFR 1°C / 1°C 50º 20kt 1500m Snow Mist 3.00mm precipitation Vertical Visibility of 0ft. 1013 No Significant change LROP 270000Z 05020KT 1500 SN BR OVC004 01/01 Q1013 NOSIG
IFR 1°C / 1°C 50º 19kt 2000m Light Snow Light Rain Mist 1.00mm precipitation Vertical Visibility of 0ft. 1014 No Significant change LROP 262330Z 05019KT 2000 -SNRA BR OVC005 01/01 Q1014 NOSIG
IFR 1°C / 1°C 50º 22kt 4000m Light Rain Light Snow Mist 1.00mm precipitation Vertical Visibility of 0ft. 1014 No Significant change LROP 262300Z 05022KT 4000 -RASN BR OVC007 01/01 Q1014 NOSIG
IFR 2°C / 1°C 50º 21kt 4000m Light Rain Light Snow Mist 1.00mm precipitation Vertical Visibility of 0ft. 1014 No Significant change LROP 262230Z 05021KT 4000 -RASN BR OVC007 02/01 Q1014 NOSIG
IFR 2°C / 2°C 50º 20kt 4000m Light Rain Light Snow Mist 1.00mm precipitation Vertical Visibility of 0ft. 1015 No Significant change LROP 262200Z 05020KT 4000 -RASN BR OVC008 02/02 Q1015 RERA NOSIG
MVFR 2°C / 2°C 50º 20kt 5000m Rain Mist 3.00mm precipitation Vertical Visibility of 0ft.
Overcast 2000ft
1015 No Significant change LROP 262130Z 05020KT 5000 RA BR BKN010 OVC020 02/02 Q1015 NOSIG
MVFR 2°C / 2°C 50º 19kt 6000m Light Rain 1.00mm precipitation Vertical Visibility of 0ft.
Broken Clouds 2300ft
1016 No Significant change LROP 262100Z 05019KT 6000 -RA SCT010 BKN023 02/02 Q1016 NOSIG

IFR

0°C / 0°C

[Mai mult]
Vânt 50º 20kt
Vizibilitate >10km
Vremea Light Rain Light Snow 1.00mm precipitation
Nori Vertical Visibility of 0ft.
Presiune 1011
Schimbă Becoming: Broken Clouds 1000ft. Overcast 1500ft.
Brut LROP 270830Z 05020KT 9999 -RASN OVC007 00/00 Q1011 BECMG BKN010 OVC015

IFR

0°C / 0°C

[Mai mult]
Vânt 50º 22kt
Vizibilitate 7000m
Vremea Light Rain Light Snow 1.00mm precipitation
Nori Vertical Visibility of 0ft.
Presiune 1012
Schimbă Becoming: Broken Clouds 1000ft. Overcast 1500ft.
Brut LROP 270800Z 05022KT 7000 -RASN OVC007 M00/M00 Q1012 BECMG BKN010 OVC015

IFR

0°C / 0°C

[Mai mult]
Vânt 50º 23kt
Vizibilitate 5000m
Vremea Light Snow Mist 1.00mm precipitation
Nori Vertical Visibility of 0ft.
Presiune 1012
Schimbă Becoming: Broken Clouds 1000ft. Overcast 1500ft.
Brut LROP 270730Z 05023KT 5000 -SN BR OVC007 M00/M00 Q1012 BECMG BKN010 OVC015

IFR

0°C / 0°C

[Mai mult]
Vânt 50º 14kt Gust 24kt
Vizibilitate 3500m
Vremea Light Snow Mist 1.00mm precipitation
Nori Vertical Visibility of 0ft.
Presiune 1012
Schimbă No Significant change
Brut LROP 270700Z 05014G24KT 3500 -SN BR OVC006 M00/M00 Q1012 NOSIG

IFR

0°C / 0°C

[Mai mult]
Vânt 50º variable 020º to 080º 15kt
Vizibilitate 2200m
Vremea Light Snow Mist 1.00mm precipitation
Nori Vertical Visibility of 0ft.
Presiune 1012
Schimbă No Significant change
Brut LROP 270630Z 05015KT 020V080 2200 -SN BR OVC006 M00/M00 Q1012 NOSIG

IFR

0°C / 0°C

[Mai mult]
Vânt 50º variable 010º to 110º 12kt
Vizibilitate 2200m
Vremea Light Snow 1.00mm precipitation
Nori Vertical Visibility of 0ft.
Presiune 1012
Schimbă No Significant change
Brut LROP 270600Z 05012KT 010V110 2200 -SN OVC006 M00/M00 Q1012 NOSIG

LIFR

0°C / 0°C

[Mai mult]
Vânt 50º 23kt
Vizibilitate 1500m
Vremea Light Snow Mist 1.00mm precipitation
Nori Vertical Visibility of 0ft.
Presiune 1012
Schimbă No Significant change
Brut LROP 270530Z 05023KT 1500 -SN BR OVC005 M00/M00 Q1012 NOSIG

LIFR

0°C / 0°C

[Mai mult]
Vânt 50º 21kt
Vizibilitate 1500m
Vremea Light Snow Mist 1.00mm precipitation
Nori Vertical Visibility of 0ft.
Presiune 1012
Schimbă No Significant change
Brut LROP 270500Z 05021KT 1500 -SN BR OVC005 00/00 Q1012 NOSIG

IFR

0°C / 0°C

[Mai mult]
Vânt 50º 21kt
Vizibilitate 1800m
Vremea Light Snow Mist 1.00mm precipitation
Nori Vertical Visibility of 0ft.
Presiune 1012
Schimbă No Significant change
Brut LROP 270430Z 05021KT 1800 -SN BR OVC005 00/00 Q1012 NOSIG

LIFR

0°C / 0°C

[Mai mult]
Vânt 50º 21kt
Vizibilitate 1700m
Vremea Light Snow Mist 1.00mm precipitation
Nori Vertical Visibility of 0ft.
Presiune 1012
Schimbă No Significant change
Brut LROP 270400Z 05021KT 1700 -SN BR OVC004 00/00 Q1012 NOSIG

LIFR

0°C / 0°C

[Mai mult]
Vânt 50º 21kt
Vizibilitate 1500m
Vremea Light Snow Mist 1.00mm precipitation
Nori Vertical Visibility of 0ft.
Presiune 1012
Schimbă No Significant change
Brut LROP 270330Z 05021KT 1500 -SN BR OVC004 00/00 Q1012 NOSIG

LIFR

0°C / 0°C

[Mai mult]
Vânt 50º 20kt
Vizibilitate 1500m
Vremea Light Snow Mist 1.00mm precipitation
Nori Vertical Visibility of 0ft.
Presiune 1012
Schimbă Temporary: Visibility 0800. Snow .
Brut LROP 270300Z 05020KT 1500 -SN BR OVC004 00/00 Q1012 TEMPO 0800 SN

LIFR

0°C / 0°C

[Mai mult]
Vânt 50º 19kt
Vizibilitate 1700m
Vremea Light Snow Mist 1.00mm precipitation
Nori Vertical Visibility of 0ft.
Overcast 3500ft
Presiune 1012
Schimbă No Significant change
Brut LROP 270230Z 05019KT 1700 -SN BR BKN004 OVC035 00/00 Q1012 NOSIG

LIFR

0°C / 0°C

[Mai mult]
Vânt 50º 19kt
Vizibilitate 1500m
Vremea Light Snow Mist 1.00mm precipitation
Nori Vertical Visibility of 0ft.
Presiune 1012
Schimbă Temporary: Visibility 0800. Snow . blowing Snow . Broken Clouds 200ft. Overcast 500ft.
Brut LROP 270200Z 05019KT 1500 -SN BR OVC004 00/00 Q1012 TEMPO 0800 SN BLSN BKN002 OVC005

LIFR

0°C / 0°C

[Mai mult]
Vânt 50º 21kt
Vizibilitate 1100m. Runway 08R: Visual range is 1100m. Runway 08L: Visual range is 1700m.
Vremea blowing Snow Snow 3.00mm precipitation
Nori Vertical Visibility of 0ft.
Presiune 1013
Schimbă No Significant change
Brut LROP 270130Z 05021KT 1100 R08R/1100 R08L/1700 SN BLSN OVC004 00/00 Q1013 NOSIG

LIFR

0°C / 0°C

[Mai mult]
Vânt 50º 20kt
Vizibilitate 1500m
Vremea Snow Mist 3.00mm precipitation
Nori Vertical Visibility of 0ft.
Presiune 1013
Schimbă No Significant change
Brut LROP 270100Z 05020KT 1500 SN BR OVC005 00/00 Q1013 NOSIG

LIFR

1°C / 0°C

[Mai mult]
Vânt 50º 21kt
Vizibilitate 1500m
Vremea Snow Mist 3.00mm precipitation
Nori Vertical Visibility of 0ft.
Presiune 1013
Schimbă No Significant change
Brut LROP 270030Z 05021KT 1500 SN BR OVC004 01/00 Q1013 NOSIG

LIFR

1°C / 1°C

[Mai mult]
Vânt 50º 20kt
Vizibilitate 1500m
Vremea Snow Mist 3.00mm precipitation
Nori Vertical Visibility of 0ft.
Presiune 1013
Schimbă No Significant change
Brut LROP 270000Z 05020KT 1500 SN BR OVC004 01/01 Q1013 NOSIG

IFR

1°C / 1°C

[Mai mult]
Vânt 50º 19kt
Vizibilitate 2000m
Vremea Light Snow Light Rain Mist 1.00mm precipitation
Nori Vertical Visibility of 0ft.
Presiune 1014
Schimbă No Significant change
Brut LROP 262330Z 05019KT 2000 -SNRA BR OVC005 01/01 Q1014 NOSIG

IFR

1°C / 1°C

[Mai mult]
Vânt 50º 22kt
Vizibilitate 4000m
Vremea Light Rain Light Snow Mist 1.00mm precipitation
Nori Vertical Visibility of 0ft.
Presiune 1014
Schimbă No Significant change
Brut LROP 262300Z 05022KT 4000 -RASN BR OVC007 01/01 Q1014 NOSIG

IFR

2°C / 1°C

[Mai mult]
Vânt 50º 21kt
Vizibilitate 4000m
Vremea Light Rain Light Snow Mist 1.00mm precipitation
Nori Vertical Visibility of 0ft.
Presiune 1014
Schimbă No Significant change
Brut LROP 262230Z 05021KT 4000 -RASN BR OVC007 02/01 Q1014 NOSIG

IFR

2°C / 2°C

[Mai mult]
Vânt 50º 20kt
Vizibilitate 4000m
Vremea Light Rain Light Snow Mist 1.00mm precipitation
Nori Vertical Visibility of 0ft.
Presiune 1015
Schimbă No Significant change
Brut LROP 262200Z 05020KT 4000 -RASN BR OVC008 02/02 Q1015 RERA NOSIG

MVFR

2°C / 2°C

[Mai mult]
Vânt 50º 20kt
Vizibilitate 5000m
Vremea Rain Mist 3.00mm precipitation
Nori Vertical Visibility of 0ft.
Overcast 2000ft
Presiune 1015
Schimbă No Significant change
Brut LROP 262130Z 05020KT 5000 RA BR BKN010 OVC020 02/02 Q1015 NOSIG

MVFR

2°C / 2°C

[Mai mult]
Vânt 50º 19kt
Vizibilitate 6000m
Vremea Light Rain 1.00mm precipitation
Nori Vertical Visibility of 0ft.
Broken Clouds 2300ft
Presiune 1016
Schimbă No Significant change
Brut LROP 262100Z 05019KT 6000 -RA SCT010 BKN023 02/02 Q1016 NOSIG

TAF pentru Otopeni (LROP)

From till


From till Wind 50º 20kt. Gust 30kt. Visibility 1500m. Light Snow Mist . Overcast 500ft.
Becoming from till Wind 50º 20kt. Gust 30kt. Visibility 5000m. Light Snow Mist . Scattered Clouds 500ft. Overcast 1500ft.
Becoming from till Wind 50º 8kt. Visibility 3000m. Light Snow . Broken Clouds 1000ft. Overcast 2000ft.
Temporarly from till Visibility 1500m. Snow . Broken Clouds 500ft. Overcast 1000ft.
Becoming from till Wind 250º 10kt. Visibility 3000m. Light Snow . Broken Clouds 1000ft. Overcast 2000ft.

Brut: TAF LROP 270500Z 2706/2806 05020G30KT 1500 -SN BR OVC005 BECMG 2708/2710 5000 SCT005 OVC015 BECMG 2718/2720 05008KT 3000 -SN BKN010 OVC020 TEMPO 2719/2803 1500 SN BKN005 OVC010 BECMG 2723/2801 25010KT

Radar și nowcast de precipitații pentru Otopeni

Burniță
Ușoară
Moderat
Greu
Foarte greu
Grindină

Markerul de locație este plasat în Otopeni. Această animaţie arată radarul de precipitaţii pentru 1 ora anterioară. Ploaia sau ninsoarea slabă ar putea fi invizibilă pentru radar. Intensitatea precipitațiilor este codificată prin culori, de la albastru deschis la portocaliu.
Copyright 2023 Meteo Romania / meteoblue.

Imagini satelitare și ploaie pentru Otopeni, România

Markerul cu locaţia este poziţionat pe Otopeni. [Mai mult]

Imaginea satelitară în timp real combină lumina vizibilă din timpul zilei cu radiația cu infraroșu din timpul nopții. Pe timp de noapte, imaginea nu este întunecată, deoarece radiația cu infraroșu poate detecta diferențele de temperatură. Din păcate, norii joși și ceața sunt greu de recunoscut față de temperatura de la sol, din această cauză putând fi invizibili pe timp de noapte. Imaginile satelitare Meteosat pentru Europa sunt actualizate în timp real din 5 în 5 minute. Imaginile GOES-16/GOES-17 (America de Nord și de Sud) și Himawari (Asia) sunt actualizate din 10 în 10 minute.

Precipitațiile sunt estimate pe baza radarelor și a sateliților. Estimările de precipitații de la sateliți sunt mai puțin precise pe timp de noapte decât pe timp de zi. Crucile portocalii marchează locurile unde fulger a fost detectat (over Europa).

Toate drepturile rezervate 2023 EUMETSAT / meteoblue. Datele despre fulgere furnizate de către nowcast.

Mergi sus